Time;durP1;ratioP1;P1;durP2;ratioP2;P2;SDS_P1;SDS_P2;PMS_P1;PMS_P2;Temp;Humidity;BMP_temperature;BMP_pressure;BME280_temperature;BME280_humidity;BME280_pressure;Samples;Min_cycle;Max_cycle;Signal;HPM_P1;HPM_P2
2023/05/06 00:00:25;;;;;;;11.10;10.10;;;;;;;12.29;59.81;95035.22;5031332;28;20216;-65
2023/05/06 00:02:51;;;;;;;11.27;10.25;;;;;;;12.34;59.92;95027.63;5033928;28;20241;-65
2023/05/06 00:05:20;;;;;;;11.57;10.48;;;;;;;12.27;60.06;95039.81;5035230;28;20262;-66
2023/05/06 00:07:45;;;;;;;11.20;10.20;;;;;;;12.29;59.91;95041.28;5020997;28;20214;-67
2023/05/06 00:10:11;;;;;;;11.70;10.63;;;;;;;12.32;60.12;95041.00;5028710;28;20200;-66
2023/05/06 00:12:37;;;;;;;12.75;10.45;;;;;;;12.25;60.14;95032.06;5037111;28;20314;-66
2023/05/06 00:15:03;;;;;;;11.88;10.73;;;;;;;12.05;60.93;95035.97;5032304;28;20263;-67
2023/05/06 00:17:28;;;;;;;12.75;10.60;;;;;;;12.05;60.76;95034.16;5029652;28;20320;-68
2023/05/06 00:19:55;;;;;;;11.30;10.35;;;;;;;12.11;60.66;95033.53;5035989;28;20217;-67
2023/05/06 00:22:21;;;;;;;12.25;10.95;;;;;;;12.05;60.82;95033.34;5045111;28;20184;-67
2023/05/06 00:24:46;;;;;;;12.45;11.18;;;;;;;11.87;61.08;95031.66;5043373;28;20186;-67
2023/05/06 00:27:12;;;;;;;11.95;10.75;;;;;;;11.84;61.40;95034.56;5035739;28;20222;-68
2023/05/06 00:29:37;;;;;;;11.95;10.75;;;;;;;11.91;61.09;95032.13;5026146;28;20225;-68
2023/05/06 00:32:03;;;;;;;13.23;10.85;;;;;;;11.87;60.95;95036.91;5032304;28;20256;-68
2023/05/06 00:34:29;;;;;;;11.52;10.43;;;;;;;11.81;60.96;95032.22;5031217;28;20186;-68
2023/05/06 00:36:54;;;;;;;11.13;10.02;;;;;;;11.65;61.39;95026.91;5025808;28;20186;-68
2023/05/06 00:39:20;;;;;;;11.45;10.25;;;;;;;11.62;61.44;95029.84;5026920;28;20217;-67
2023/05/06 00:41:45;;;;;;;12.00;10.23;;;;;;;11.70;61.35;95035.16;5033877;28;20228;-68
2023/05/06 00:44:11;;;;;;;12.65;11.32;;;;;;;11.73;61.26;95031.38;5024202;28;20301;-68
2023/05/06 00:46:37;;;;;;;11.90;10.80;;;;;;;11.65;61.83;95033.00;5044553;28;20239;-69
2023/05/06 00:49:02;;;;;;;11.40;10.37;;;;;;;11.75;61.31;95026.78;5032093;28;20248;-68
2023/05/06 00:51:28;;;;;;;12.40;11.27;;;;;;;11.82;60.64;95028.63;5022811;28;20217;-68
2023/05/06 00:53:54;;;;;;;12.05;10.57;;;;;;;11.88;60.47;95029.84;5032662;28;20214;-67
2023/05/06 00:56:19;;;;;;;11.35;10.27;;;;;;;11.65;61.26;95025.13;5022106;28;20292;-66
2023/05/06 00:58:45;;;;;;;11.80;10.70;;;;;;;11.67;61.31;95020.50;5032194;28;20217;-66
2023/05/06 01:01:11;;;;;;;11.68;10.65;;;;;;;11.60;61.46;95019.50;5053136;28;20189;-67
2023/05/06 01:03:38;;;;;;;11.80;10.07;;;;;;;11.63;61.39;95019.16;5035756;28;20268;-66
2023/05/06 01:06:28;;;;;;;10.27;9.37;;;;;;;11.75;61.09;95024.97;5035464;28;20249;-67
2023/05/06 01:09:04;;;;;;;11.40;10.30;;;;;;;11.69;61.22;95022.97;5028782;28;20240;-67
2023/05/06 01:11:56;;;;;;;11.27;10.10;;;;;;;11.80;60.94;95021.88;5033699;28;20221;-67
2023/05/06 01:14:45;;;;;;;11.73;10.63;;;;;;;11.82;60.59;95022.53;5021118;28;20244;-67
2023/05/06 01:17:14;;;;;;;11.13;9.90;;;;;;;11.72;61.17;95012.13;5040851;28;20297;-66
2023/05/06 01:19:45;;;;;;;11.88;10.60;;;;;;;11.72;61.15;95022.66;5042884;28;20275;-67
2023/05/06 01:22:12;;;;;;;11.20;10.00;;;;;;;11.71;61.03;95023.66;5019177;28;20192;-66
2023/05/06 01:24:42;;;;;;;11.00;9.90;;;;;;;11.75;60.75;95011.78;5028661;28;20267;-66
2023/05/06 01:27:10;;;;;;;11.83;10.83;;;;;;;11.70;60.93;95017.53;5031848;28;20226;-65
2023/05/06 01:29:38;;;;;;;11.88;10.77;;;;;;;11.41;61.72;95019.69;5022064;28;20260;-66
2023/05/06 01:32:40;;;;;;;13.93;11.00;;;;;;;11.26;62.28;95014.22;5035771;28;20213;-67
2023/05/06 01:35:15;;;;;;;12.30;11.18;;;;;;;11.16;62.68;95006.41;5018106;28;20228;-66
2023/05/06 01:37:45;;;;;;;12.35;11.00;;;;;;;11.27;62.42;95003.50;5024764;28;20213;-63
2023/05/06 01:40:13;;;;;;;11.80;10.70;;;;;;;11.27;62.52;95011.41;5030561;28;20186;-65
2023/05/06 01:42:39;;;;;;;11.60;10.52;;;;;;;11.25;62.64;95002.00;5024327;28;20225;-65
2023/05/06 01:45:07;;;;;;;12.73;10.98;;;;;;;11.31;62.48;95011.94;5029508;28;20221;-66
2023/05/06 01:47:33;;;;;;;12.07;10.77;;;;;;;11.19;62.53;95014.00;5038180;28;20222;-67
2023/05/06 01:50:00;;;;;;;11.88;10.63;;;;;;;11.20;62.41;95017.44;5026797;28;20274;-66
2023/05/06 01:52:26;;;;;;;12.45;11.07;;;;;;;10.99;62.84;95005.50;5033371;28;20207;-66
2023/05/06 01:54:51;;;;;;;11.57;10.32;;;;;;;11.03;63.14;95012.09;5032669;28;20188;-66
2023/05/06 01:57:17;;;;;;;11.45;10.45;;;;;;;11.17;62.23;95017.75;5034247;28;20229;-65
2023/05/06 01:59:42;;;;;;;11.82;10.73;;;;;;;11.06;62.50;95010.94;5035081;28;20213;-66
2023/05/06 02:02:08;;;;;;;10.95;9.80;;;;;;;10.99;63.00;95021.28;5034518;28;20232;-66
2023/05/06 02:04:33;;;;;;;12.03;10.83;;;;;;;11.02;62.64;95018.34;5034479;28;20195;-67
2023/05/06 02:06:58;;;;;;;12.50;11.20;;;;;;;10.94;62.75;95020.09;5034347;28;20216;-66
2023/05/06 02:09:24;;;;;;;12.15;11.13;;;;;;;10.97;62.78;95010.06;5038259;28;20225;-66
2023/05/06 02:11:49;;;;;;;12.43;11.23;;;;;;;10.94;62.97;95006.94;5033434;28;20218;-66
2023/05/06 02:14:15;;;;;;;12.98;11.77;;;;;;;11.01;62.81;95007.94;5029999;28;20225;-66
2023/05/06 02:16:40;;;;;;;12.27;10.73;;;;;;;10.90;62.89;95000.31;5034402;28;20233;-66
2023/05/06 02:19:06;;;;;;;12.10;10.90;;;;;;;10.99;62.48;95009.94;5035174;28;20280;-66
2023/05/06 02:21:31;;;;;;;13.43;12.05;;;;;;;10.97;62.51;95007.44;5028722;28;20217;-66
2023/05/06 02:23:57;;;;;;;12.95;11.40;;;;;;;11.00;62.42;95004.50;5034701;28;20214;-65
2023/05/06 02:26:22;;;;;;;12.73;11.53;;;;;;;11.03;62.61;95009.44;5031129;28;20221;-65
2023/05/06 02:28:48;;;;;;;13.07;11.88;;;;;;;11.03;62.33;95008.63;5025695;28;20227;-66
2023/05/06 02:31:14;;;;;;;13.43;12.03;;;;;;;10.99;62.81;95005.50;5035661;28;20208;-65
2023/05/06 02:33:40;;;;;;;15.27;13.27;;;;;;;10.92;63.14;95008.88;5032305;28;20214;-66
2023/05/06 02:36:06;;;;;;;13.27;11.98;;;;;;;10.84;63.43;95007.03;5030109;28;20273;-66
2023/05/06 02:38:31;;;;;;;14.03;12.53;;;;;;;10.93;63.03;95008.75;5032766;28;20217;-66
2023/05/06 02:40:56;;;;;;;15.10;12.87;;;;;;;11.01;62.77;95014.06;5044466;28;20283;-66
2023/05/06 02:43:22;;;;;;;14.18;12.77;;;;;;;10.94;62.70;95010.38;5032839;28;20198;-66
2023/05/06 02:45:47;;;;;;;15.57;13.68;;;;;;;10.91;62.77;95010.69;5030773;28;20182;-66
2023/05/06 02:48:13;;;;;;;16.73;12.70;;;;;;;10.97;62.79;95015.34;5031610;28;20213;-65
2023/05/06 02:50:38;;;;;;;14.40;12.60;;;;;;;10.95;62.40;95014.66;5028542;28;20224;-65
2023/05/06 02:53:04;;;;;;;16.00;14.30;;;;;;;10.88;62.74;95016.28;5033613;28;20225;-66
2023/05/06 02:55:29;;;;;;;15.60;13.05;;;;;;;10.87;62.81;95016.41;5028564;28;20220;-66
2023/05/06 02:57:54;;;;;;;13.23;11.55;;;;;;;10.88;62.62;95023.31;5031290;28;20240;-66
2023/05/06 03:00:20;;;;;;;17.23;13.18;;;;;;;10.77;62.83;95033.13;5022553;28;20434;-66
2023/05/06 03:02:46;;;;;;;14.43;12.93;;;;;;;10.77;62.75;95021.75;5029063;28;20228;-66
2023/05/06 03:05:11;;;;;;;14.55;12.32;;;;;;;10.75;62.91;95029.81;5032012;28;20214;-66
2023/05/06 03:07:37;;;;;;;12.45;11.02;;;;;;;10.79;62.54;95027.69;5032117;28;20228;-67
2023/05/06 03:10:03;;;;;;;13.37;12.10;;;;;;;10.84;62.32;95033.34;5028849;28;20185;-67
2023/05/06 03:12:29;;;;;;;12.60;11.50;;;;;;;10.81;62.68;95028.38;5020890;28;20221;-67
2023/05/06 03:14:54;;;;;;;13.23;11.82;;;;;;;10.82;62.56;95025.59;5038533;28;20214;-64
2023/05/06 03:17:20;;;;;;;13.67;12.27;;;;;;;10.85;62.67;95023.63;5023876;28;20241;-67
2023/05/06 03:19:47;;;;;;;14.93;13.37;;;;;;;10.75;62.75;95024.56;5021315;28;20225;-66
2023/05/06 03:22:13;;;;;;;16.35;12.70;;;;;;;10.80;62.71;95038.09;5032071;28;20246;-65
2023/05/06 03:24:38;;;;;;;16.75;12.82;;;;;;;10.77;62.86;95032.28;5028132;28;20305;-66
2023/05/06 03:27:04;;;;;;;15.85;12.98;;;;;;;10.73;62.96;95046.72;5028058;28;20217;-66
2023/05/06 03:29:29;;;;;;;16.17;12.30;;;;;;;10.72;62.98;95045.91;5033468;28;20224;-66
2023/05/06 03:31:55;;;;;;;15.68;12.80;;;;;;;10.66;62.95;95038.59;5020763;28;20310;-65
2023/05/06 03:34:21;;;;;;;16.77;12.53;;;;;;;10.60;63.05;95037.41;5032138;28;20665;-65
2023/05/06 03:36:47;;;;;;;13.98;12.68;;;;;;;10.57;63.34;95047.41;5031338;28;20194;-66
2023/05/06 03:39:12;;;;;;;12.95;11.10;;;;;;;10.65;63.10;95049.28;5030082;28;20214;-66
2023/05/06 03:41:38;;;;;;;18.70;13.00;;;;;;;10.68;63.44;95054.25;5027316;28;20209;-67
2023/05/06 03:44:03;;;;;;;17.20;13.17;;;;;;;10.67;63.37;95053.41;5025868;28;20248;-67
2023/05/06 03:46:29;;;;;;;14.73;12.97;;;;;;;10.64;63.13;95047.63;5022810;28;20205;-65
2023/05/06 03:48:54;;;;;;;17.60;13.57;;;;;;;10.67;63.10;95049.97;5029552;28;20190;-64
2023/05/06 03:51:19;;;;;;;18.13;16.17;;;;;;;10.79;62.55;95052.19;5026415;28;20296;-64
2023/05/06 03:53:45;;;;;;;16.63;14.87;;;;;;;10.80;62.48;95053.84;5030069;28;20214;-66
2023/05/06 03:56:10;;;;;;;14.95;13.35;;;;;;;10.81;62.55;95049.41;5032393;28;20312;-62
2023/05/06 03:58:36;;;;;;;14.32;12.85;;;;;;;10.93;62.63;95057.88;5039332;28;20216;-65
2023/05/06 04:01:01;;;;;;;14.80;12.93;;;;;;;10.94;62.95;95062.19;5033763;28;20178;-70
2023/05/06 04:03:27;;;;;;;21.47;13.43;;;;;;;11.00;62.91;95065.00;5027379;28;20248;-64
2023/05/06 04:05:52;;;;;;;21.50;14.23;;;;;;;11.03;63.00;95056.81;5032889;28;20206;-67
2023/05/06 04:08:18;;;;;;;15.73;13.50;;;;;;;11.02;62.86;95059.63;5037628;28;20233;-65
2023/05/06 04:10:44;;;;;;;17.63;14.20;;;;;;;11.17;62.40;95065.13;5037868;28;20233;-67
2023/05/06 04:13:09;;;;;;;18.63;13.80;;;;;;;11.20;62.28;95060.41;5043874;28;20213;-62
2023/05/06 04:15:35;;;;;;;15.88;13.82;;;;;;;11.08;62.50;95060.81;5025941;28;20238;-62
2023/05/06 04:18:01;;;;;;;21.45;14.10;;;;;;;11.27;62.16;95063.22;5040360;28;20218;-62
2023/05/06 04:20:27;;;;;;;15.07;13.38;;;;;;;11.14;62.19;95070.72;5044006;28;20268;-64
2023/05/06 04:22:52;;;;;;;20.60;13.63;;;;;;;11.30;62.05;95070.81;5043269;28;20230;-62
2023/05/06 04:25:18;;;;;;;16.40;12.90;;;;;;;11.34;62.20;95072.16;5033183;28;20190;-63
2023/05/06 04:27:44;;;;;;;13.80;10.35;;;;;;;11.37;61.57;95071.84;5034872;28;20187;-65
2023/05/06 04:30:10;;;;;;;11.93;10.63;;;;;;;11.20;61.99;95067.44;5021687;28;20218;-65
2023/05/06 04:32:37;;;;;;;12.40;10.82;;;;;;;11.27;62.01;95068.50;5033092;28;20221;-65
2023/05/06 04:35:03;;;;;;;12.43;11.13;;;;;;;11.35;62.12;95079.06;5024325;28;20225;-67
2023/05/06 04:37:29;;;;;;;12.90;11.68;;;;;;;11.63;61.43;95073.66;5031922;28;20198;-65
2023/05/06 04:39:56;;;;;;;12.73;10.70;;;;;;;11.36;62.34;95083.38;5029340;28;20190;-65
2023/05/06 04:42:21;;;;;;;14.30;11.85;;;;;;;11.36;62.69;95079.91;5035555;28;20410;-65
2023/05/06 04:44:47;;;;;;;13.68;11.02;;;;;;;11.50;62.99;95084.59;5033978;28;20390;-65
2023/05/06 04:47:13;;;;;;;13.47;12.23;;;;;;;11.57;62.64;95088.25;5044727;28;20227;-66
2023/05/06 04:49:38;;;;;;;12.68;11.40;;;;;;;11.70;62.07;95085.19;5034013;28;20271;-66
2023/05/06 04:52:04;;;;;;;12.27;10.98;;;;;;;11.87;62.10;95086.97;5035407;28;20263;-66
2023/05/06 04:54:29;;;;;;;15.35;12.55;;;;;;;11.96;61.60;95087.00;5035727;28;20217;-66
2023/05/06 04:56:55;;;;;;;13.20;11.90;;;;;;;12.10;61.27;95094.31;5036611;28;20226;-66
2023/05/06 04:59:20;;;;;;;12.55;11.25;;;;;;;12.12;61.35;95097.63;5040876;28;20219;-66
2023/05/06 05:01:46;;;;;;;12.25;10.98;;;;;;;12.32;60.98;95101.66;5032190;28;20230;-65
2023/05/06 05:04:11;;;;;;;11.10;9.98;;;;;;;12.40;59.80;95102.63;5032094;28;20190;-65
2023/05/06 05:06:37;;;;;;;12.63;10.60;;;;;;;12.44;59.98;95106.63;5035950;28;20221;-65
2023/05/06 05:09:02;;;;;;;11.52;10.43;;;;;;;12.48;59.68;95102.66;5034254;28;20210;-67
2023/05/06 05:11:28;;;;;;;11.70;10.35;;;;;;;12.65;59.38;95100.91;5019798;28;20272;-67
2023/05/06 05:13:53;;;;;;;10.55;9.50;;;;;;;12.74;58.65;95105.19;5031711;28;20232;-66
2023/05/06 05:16:19;;;;;;;11.05;9.95;;;;;;;12.83;58.31;95111.28;5027563;28;20213;-65
2023/05/06 05:18:44;;;;;;;12.20;10.88;;;;;;;12.90;58.50;95107.03;5032963;28;20185;-66
2023/05/06 05:21:10;;;;;;;11.32;10.15;;;;;;;12.86;58.78;95105.72;5023196;28;20218;-66
2023/05/06 05:23:35;;;;;;;11.13;10.02;;;;;;;12.78;59.16;95112.63;5032082;28;20234;-67
2023/05/06 05:26:02;;;;;;;14.20;11.00;;;;;;;12.74;59.67;95108.66;5032079;28;20233;-66
2023/05/06 05:28:27;;;;;;;11.80;10.63;;;;;;;12.88;59.35;95112.44;5030076;28;20265;-66
2023/05/06 05:30:53;;;;;;;11.80;10.60;;;;;;;12.88;59.34;95109.81;5030451;28;20339;-67
2023/05/06 05:33:18;;;;;;;11.52;10.52;;;;;;;12.94;59.54;95119.72;5022751;28;20237;-68
2023/05/06 05:35:44;;;;;;;11.07;10.05;;;;;;;12.97;59.77;95113.31;5027401;28;20832;-66
2023/05/06 05:38:11;;;;;;;11.63;10.57;;;;;;;12.83;59.62;95101.59;5031517;28;20205;-66
2023/05/06 05:40:37;;;;;;;11.52;10.32;;;;;;;12.89;59.30;95105.38;5043245;28;20184;-66
2023/05/06 05:43:02;;;;;;;11.35;10.35;;;;;;;12.92;58.74;95110.31;5034933;28;20181;-66
2023/05/06 05:45:28;;;;;;;11.23;10.13;;;;;;;13.05;58.52;95110.66;5033282;28;20220;-66
2023/05/06 05:47:53;;;;;;;11.05;9.82;;;;;;;13.01;58.65;95106.69;5031271;28;20228;-67
2023/05/06 05:50:19;;;;;;;11.25;10.13;;;;;;;13.10;57.97;95108.34;5032111;28;20233;-66
2023/05/06 05:52:44;;;;;;;11.20;9.80;;;;;;;13.09;57.71;95106.69;5028126;28;20304;-67
2023/05/06 05:55:10;;;;;;;13.30;10.27;;;;;;;13.16;57.81;95109.50;5022872;28;20178;-66
2023/05/06 05:57:35;;;;;;;11.68;10.57;;;;;;;13.27;57.82;95116.31;5028504;28;20233;-66
2023/05/06 06:00:01;;;;;;;11.15;9.45;;;;;;;13.08;59.01;95109.50;5021220;28;20405;-67
2023/05/06 06:02:26;;;;;;;11.55;10.15;;;;;;;13.12;59.02;95118.72;5018443;28;20226;-67
2023/05/06 06:04:52;;;;;;;11.43;10.38;;;;;;;13.21;58.90;95125.69;5026366;28;20226;-68
2023/05/06 06:07:17;;;;;;;10.68;9.57;;;;;;;13.13;58.57;95118.59;5018161;28;20190;-67
2023/05/06 06:09:45;;;;;;;10.65;9.60;;;;;;;13.32;57.49;95122.75;5020486;28;20224;-66
2023/05/06 06:12:11;;;;;;;10.23;9.18;;;;;;;13.06;57.15;95117.59;5029041;28;20218;-67
2023/05/06 06:14:36;;;;;;;11.07;10.05;;;;;;;12.72;58.97;95121.19;5027511;28;20227;-66
2023/05/06 06:17:02;;;;;;;10.32;9.30;;;;;;;12.92;58.66;95131.44;5028351;28;20225;-66
2023/05/06 06:19:27;;;;;;;10.75;9.65;;;;;;;13.14;57.92;95124.69;5023538;28;20186;-65
2023/05/06 06:21:52;;;;;;;9.32;8.43;;;;;;;13.31;57.47;95131.66;5026349;28;20190;-65
2023/05/06 06:24:18;;;;;;;11.52;9.57;;;;;;;13.44;56.99;95121.41;5030369;28;20217;-66
2023/05/06 06:26:43;;;;;;;10.20;9.27;;;;;;;13.61;56.82;95127.50;5029905;28;20240;-67
2023/05/06 06:29:09;;;;;;;10.55;9.55;;;;;;;13.54;56.98;95125.69;5030299;28;20233;-67
2023/05/06 06:31:34;;;;;;;10.07;9.18;;;;;;;13.76;56.49;95122.34;5028554;28;20220;-67
2023/05/06 06:34:00;;;;;;;10.65;9.63;;;;;;;13.31;58.00;95128.16;5030499;28;20197;-65
2023/05/06 06:36:25;;;;;;;10.70;9.80;;;;;;;13.05;58.67;95121.22;5033156;28;20225;-66
2023/05/06 06:38:50;;;;;;;14.63;10.65;;;;;;;13.28;58.29;95124.03;5027443;28;20214;-66
2023/05/06 06:41:16;;;;;;;11.20;10.20;;;;;;;13.36;58.56;95126.69;5030715;28;20221;-66
2023/05/06 06:43:41;;;;;;;11.07;10.02;;;;;;;13.51;58.09;95126.84;5029917;28;20213;-66
2023/05/06 06:46:07;;;;;;;10.98;9.98;;;;;;;13.64;58.04;95129.78;5030989;28;20188;-66
2023/05/06 06:48:32;;;;;;;12.25;11.13;;;;;;;13.77;57.60;95131.94;5025999;28;20295;-66
2023/05/06 06:50:58;;;;;;;12.95;11.48;;;;;;;13.65;57.97;95136.72;5029873;28;20308;-66
2023/05/06 06:53:23;;;;;;;13.43;11.80;;;;;;;13.69;58.13;95145.16;5028837;28;20225;-66
2023/05/06 06:55:49;;;;;;;13.93;12.23;;;;;;;13.76;57.95;95140.00;5025110;28;20320;-66
2023/05/06 06:58:14;;;;;;;13.40;12.10;;;;;;;13.82;57.95;95136.69;5029740;28;20186;-66
2023/05/06 07:00:40;;;;;;;14.27;12.75;;;;;;;13.80;57.52;95136.88;5027703;28;20256;-67
2023/05/06 07:03:05;;;;;;;14.85;12.45;;;;;;;14.08;56.88;95129.34;5026686;28;20677;-67
2023/05/06 07:05:30;;;;;;;16.42;14.68;;;;;;;13.96;57.20;95133.38;5031326;28;20220;-67
2023/05/06 07:07:56;;;;;;;15.77;13.60;;;;;;;13.99;57.22;95143.59;5024394;28;20226;-67
2023/05/06 07:10:21;;;;;;;13.35;11.95;;;;;;;14.16;56.50;95141.72;5026697;28;20200;-67
2023/05/06 07:12:47;;;;;;;16.15;12.68;;;;;;;14.37;55.62;95142.97;5031102;28;20277;-67
2023/05/06 07:15:12;;;;;;;13.90;11.32;;;;;;;14.49;54.96;95142.44;5047499;28;20331;-67
2023/05/06 07:17:38;;;;;;;12.20;10.43;;;;;;;14.53;54.75;95143.75;5020394;28;20224;-67
2023/05/06 07:20:04;;;;;;;11.52;10.35;;;;;;;14.71;53.87;95142.69;5026531;28;20225;-67
2023/05/06 07:22:29;;;;;;;11.32;8.70;;;;;;;14.81;52.89;95140.63;5029587;28;20181;-65
2023/05/06 07:24:55;;;;;;;9.70;8.70;;;;;;;14.89;51.92;95145.88;5027571;28;20182;-68
2023/05/06 07:27:20;;;;;;;9.45;8.35;;;;;;;15.12;51.50;95150.34;5028733;28;20539;-67
2023/05/06 07:29:46;;;;;;;11.95;9.73;;;;;;;15.05;51.91;95146.75;5021164;28;20216;-66
2023/05/06 07:32:11;;;;;;;9.80;8.90;;;;;;;15.11;51.77;95148.72;5030551;28;20364;-66
2023/05/06 07:34:37;;;;;;;10.15;7.97;;;;;;;15.07;51.94;95147.41;5023209;28;20193;-66
2023/05/06 07:37:03;;;;;;;8.13;7.40;;;;;;;15.04;51.61;95139.81;5028535;28;20252;-68
2023/05/06 07:39:29;;;;;;;7.13;6.43;;;;;;;14.69;52.19;95145.47;5026972;28;20253;-68
2023/05/06 07:41:55;;;;;;;7.50;6.80;;;;;;;14.92;51.66;95148.19;5013876;28;20252;-68
2023/05/06 07:44:20;;;;;;;7.55;6.00;;;;;;;15.26;50.94;95138.16;5031232;28;20295;-68
2023/05/06 07:46:46;;;;;;;8.30;5.97;;;;;;;15.71;49.31;95134.66;5035022;28;20228;-68
2023/05/06 07:49:11;;;;;;;6.68;6.07;;;;;;;15.62;49.93;95136.53;5039312;28;20186;-68
2023/05/06 07:51:37;;;;;;;7.60;6.90;;;;;;;15.77;50.03;95149.84;5031815;28;20230;-68
2023/05/06 07:54:02;;;;;;;7.20;6.50;;;;;;;15.86;49.39;95138.16;5029018;28;20222;-67
2023/05/06 07:56:28;;;;;;;7.38;6.70;;;;;;;15.83;48.96;95133.22;5029889;28;20225;-67
2023/05/06 07:58:53;;;;;;;7.93;7.13;;;;;;;15.87;49.49;95139.78;5041388;28;20267;-67
2023/05/06 08:01:19;;;;;;;8.13;6.90;;;;;;;15.88;49.31;95144.09;5030165;28;20247;-67
2023/05/06 08:03:44;;;;;;;7.57;6.93;;;;;;;16.00;48.56;95143.66;5029353;28;20240;-68
2023/05/06 08:06:09;;;;;;;9.40;6.60;;;;;;;15.87;49.02;95131.84;5024287;28;20732;-67
2023/05/06 08:08:35;;;;;;;8.07;7.32;;;;;;;15.79;49.76;95134.56;5027207;28;20245;-68
2023/05/06 08:11:01;;;;;;;8.77;6.93;;;;;;;15.76;49.71;95140.25;5042371;28;20230;-68
2023/05/06 08:13:27;;;;;;;8.05;6.47;;;;;;;15.96;49.78;95132.59;5031598;28;20247;-68
2023/05/06 08:15:52;;;;;;;7.90;7.15;;;;;;;16.01;49.22;95142.63;5038986;28;20208;-66
2023/05/06 08:18:17;;;;;;;7.68;6.95;;;;;;;15.93;49.61;95127.66;5032506;28;20209;-67
2023/05/06 08:20:43;;;;;;;7.32;6.63;;;;;;;15.99;48.92;95128.75;5044104;28;20253;-67
2023/05/06 08:23:08;;;;;;;7.90;7.15;;;;;;;16.10;48.61;95133.59;5034694;28;20223;-67
2023/05/06 08:25:34;;;;;;;7.65;6.78;;;;;;;16.03;49.12;95138.78;5033136;28;20182;-68
2023/05/06 08:27:59;;;;;;;7.50;6.80;;;;;;;16.13;48.99;95143.84;5029257;28;20189;-68
2023/05/06 08:30:25;;;;;;;7.60;6.90;;;;;;;15.98;49.01;95133.22;5031902;28;20214;-67
2023/05/06 08:32:51;;;;;;;8.27;7.57;;;;;;;16.16;49.03;95130.22;5030289;28;20261;-66
2023/05/06 08:35:17;;;;;;;12.35;7.68;;;;;;;16.26;49.11;95135.25;5039501;28;20245;-67
2023/05/06 08:37:42;;;;;;;7.82;7.13;;;;;;;16.45;49.63;95139.16;5042240;28;20260;-66
2023/05/06 08:40:17;;;;;;;7.97;7.10;;;;;;;16.47;48.69;95139.81;5036698;28;20197;-66
2023/05/06 08:42:45;;;;;;;9.02;7.32;;;;;;;16.59;48.78;95134.84;5042787;28;20252;-66
2023/05/06 08:45:10;;;;;;;10.45;6.85;;;;;;;16.80;48.29;95145.53;5031467;28;20296;-67
2023/05/06 08:47:36;;;;;;;8.80;6.88;;;;;;;16.92;48.20;95143.19;5046494;28;20267;-67
2023/05/06 08:50:01;;;;;;;7.05;6.30;;;;;;;17.10;47.55;95142.78;5030961;28;20279;-67
2023/05/06 08:52:27;;;;;;;8.00;6.00;;;;;;;17.26;46.63;95144.38;5022286;28;20186;-66
2023/05/06 08:54:56;;;;;;;7.05;5.93;;;;;;;16.99;46.52;95130.81;5036899;28;20240;-66
2023/05/06 08:57:22;;;;;;;6.97;6.28;;;;;;;16.89;46.71;95130.31;5031566;28;20244;-66
2023/05/06 08:59:48;;;;;;;6.35;5.85;;;;;;;16.93;46.63;95132.41;5028073;28;20248;-66
2023/05/06 09:02:14;;;;;;;8.10;6.72;;;;;;;17.06;46.75;95131.72;5025649;28;20234;-67
2023/05/06 09:04:40;;;;;;;5.43;4.93;;;;;;;17.21;46.28;95129.00;5028979;28;20225;-67
2023/05/06 09:07:06;;;;;;;6.30;5.60;;;;;;;16.82;47.55;95126.78;5028003;28;20648;-66
2023/05/06 09:09:32;;;;;;;5.38;4.93;;;;;;;16.85;46.86;95118.44;5029967;28;20218;-67
2023/05/06 09:12:00;;;;;;;5.40;4.90;;;;;;;17.12;47.06;95130.13;5022542;28;20214;-66
2023/05/06 09:14:26;;;;;;;6.50;4.82;;;;;;;17.22;46.51;95119.22;5029890;28;20321;-67
2023/05/06 09:16:52;;;;;;;7.15;5.00;;;;;;;17.28;46.04;95113.94;5023092;28;20233;-66
2023/05/06 09:19:19;;;;;;;5.03;4.60;;;;;;;17.31;45.32;95118.06;5030431;28;20174;-66
2023/05/06 09:21:47;;;;;;;4.70;4.25;;;;;;;17.48;44.96;95108.81;5018484;28;20214;-66
2023/05/06 09:24:14;;;;;;;6.70;4.90;;;;;;;17.49;45.23;95104.31;5027092;28;20304;-67
2023/05/06 09:26:41;;;;;;;5.00;4.47;;;;;;;17.58;44.37;95114.59;5030963;28;20241;-68
2023/05/06 09:29:07;;;;;;;6.40;5.25;;;;;;;17.59;44.10;95102.16;5030399;28;20237;-68
2023/05/06 09:31:40;;;;;;;5.38;4.60;;;;;;;17.75;44.82;95108.97;5031346;28;20215;-67
2023/05/06 09:34:06;;;;;;;5.60;5.15;;;;;;;18.04;43.88;95092.88;5023324;28;20201;-67
2023/05/06 09:36:31;;;;;;;6.70;4.88;;;;;;;17.88;44.10;95098.47;5030925;28;20225;-67
2023/05/06 09:38:57;;;;;;;5.80;5.25;;;;;;;17.86;44.44;95100.53;5033577;28;20247;-67
2023/05/06 09:41:24;;;;;;;5.43;4.93;;;;;;;17.96;43.87;95101.00;5025348;28;20226;-67
2023/05/06 09:43:52;;;;;;;4.95;4.43;;;;;;;18.18;43.33;95091.09;5034032;28;20317;-67
2023/05/06 09:46:18;;;;;;;6.30;4.88;;;;;;;18.35;42.55;95096.09;5028983;28;20181;-68
2023/05/06 09:48:45;;;;;;;5.22;4.72;;;;;;;18.38;42.36;95093.00;5024442;28;20226;-68
2023/05/06 09:51:11;;;;;;;10.07;5.55;;;;;;;18.42;42.16;95091.63;5027137;28;20245;-68
2023/05/06 09:53:37;;;;;;;6.10;5.10;;;;;;;18.51;42.49;95093.88;5038912;28;20252;-68
2023/05/06 09:56:07;;;;;;;5.30;4.90;;;;;;;18.61;43.75;95087.38;5030811;28;20693;-66
2023/05/06 09:58:34;;;;;;;7.00;5.05;;;;;;;18.35;42.76;95088.91;5023816;28;20268;-67
2023/05/06 10:01:02;;;;;;;4.80;4.40;;;;;;;18.23;43.20;95080.69;5026616;28;20260;-70
2023/05/06 10:03:28;;;;;;;5.20;4.70;;;;;;;18.23;43.36;95080.69;5008524;28;20230;-71
2023/05/06 10:05:56;;;;;;;5.53;5.03;;;;;;;18.24;43.77;95070.84;5009533;28;20229;-69
2023/05/06 10:08:22;;;;;;;5.18;4.68;;;;;;;18.32;45.02;95075.19;4996859;28;20257;-69
2023/05/06 10:10:48;;;;;;;5.80;5.18;;;;;;;18.28;44.57;95078.25;5011559;28;20233;-69
2023/05/06 10:13:15;;;;;;;6.22;5.15;;;;;;;18.27;44.21;95087.22;5020866;28;20198;-70
2023/05/06 10:15:45;;;;;;;5.80;5.25;;;;;;;18.27;44.14;95084.56;5001347;28;20234;-70
2023/05/06 10:18:12;;;;;;;4.63;4.22;;;;;;;18.28;43.34;95080.91;5023505;28;20245;-70
2023/05/06 10:20:40;;;;;;;5.90;4.70;;;;;;;18.33;43.47;95077.63;5003875;28;20223;-70
2023/05/06 10:23:09;;;;;;;5.07;4.65;;;;;;;18.27;43.87;95081.09;5010851;28;20222;-69
2023/05/06 10:25:38;;;;;;;5.72;5.15;;;;;;;18.41;43.42;95077.47;5017264;28;20869;-72
2023/05/06 10:28:06;;;;;;;5.43;4.57;;;;;;;18.53;43.46;95075.06;4999732;28;20190;-71
2023/05/06 10:30:36;;;;;;;6.72;5.03;;;;;;;18.57;44.28;95075.47;5007894;28;20219;-72
2023/05/06 10:33:22;;;;;;;6.85;4.65;;;;;;;18.94;42.42;95071.50;5037111;28;20302;-69
2023/05/06 10:36:30;;;;;;;5.00;4.60;;;;;;;19.02;42.78;95062.50;5007389;28;20803;-71
2023/05/06 10:38:59;;;;;;;7.10;4.60;;;;;;;19.15;42.51;95065.19;4980783;28;20323;-68
2023/05/06 10:41:27;;;;;;;5.07;3.90;;;;;;;19.27;41.04;95065.38;4965690;28;20238;-70
2023/05/06 10:43:56;;;;;;;5.80;4.30;;;;;;;19.48;42.22;95062.53;4967398;28;20279;-70
2023/05/06 10:46:23;;;;;;;4.78;4.22;;;;;;;19.60;41.92;95062.75;4970051;28;20187;-69
2023/05/06 10:49:04;;;;;;;3.90;3.60;;;;;;;19.55;39.18;95063.34;4977159;28;20689;-70
2023/05/06 10:51:40;;;;;;;4.72;3.40;;;;;;;19.52;38.52;95063.75;4969532;28;20251;-70
2023/05/06 10:54:07;;;;;;;3.38;3.08;;;;;;;19.46;37.85;95069.94;4998259;28;20334;-70
2023/05/06 10:56:35;;;;;;;4.35;3.45;;;;;;;19.54;38.15;95066.22;4989646;28;20226;-70
2023/05/06 10:59:09;;;;;;;4.75;3.40;;;;;;;19.77;37.95;95066.63;4984237;28;20227;-69
2023/05/06 11:01:39;;;;;;;4.97;3.28;;;;;;;19.93;36.51;95067.22;4982425;28;20195;-69
2023/05/06 11:04:06;;;;;;;6.03;3.42;;;;;;;20.01;36.52;95061.66;5000198;28;20205;-70
2023/05/06 11:06:36;;;;;;;6.25;3.45;;;;;;;20.19;37.64;95061.81;4986482;28;20222;-69
2023/05/06 11:09:04;;;;;;;7.05;3.42;;;;;;;20.34;36.51;95060.75;4993293;28;20287;-68
2023/05/06 11:11:49;;;;;;;3.88;3.40;;;;;;;20.57;36.65;95058.41;4986064;28;20260;-68
2023/05/06 11:14:25;;;;;;;4.43;3.17;;;;;;;20.22;35.57;95058.72;5019648;28;20223;-68
2023/05/06 11:16:51;;;;;;;4.30;3.28;;;;;;;20.24;35.19;95054.00;5000596;28;20238;-70
2023/05/06 11:19:33;;;;;;;3.90;3.05;;;;;;;20.38;35.24;95060.13;5010349;28;20191;-69
2023/05/06 11:22:00;;;;;;;3.65;3.25;;;;;;;20.33;35.37;95064.44;5016506;28;20225;-69